Time;durP1;ratioP1;P1;durP2;ratioP2;P2;SDS_P1;SDS_P2;PMS_P1;PMS_P2;Temp;Humidity;BMP_temperature;BMP_pressure;BME280_temperature;BME280_humidity;BME280_pressure;Samples;Min_cycle;Max_cycle;Signal;HPM_P1;HPM_P2
2021/12/05 00:24:02;;;;;;;6.67;4.83;;;3.20;1.00;;;;;;4989919;28;20407;-70
2021/12/05 00:26:30;;;;;;;6.83;4.43;;;3.20;1.00;;;;;;4990396;28;20423;-70
2021/12/05 01:09:14;;;;;;;4.00;2.90;;;2.60;1.00;;;;;;4990024;28;20757;-71
2021/12/05 01:16:26;;;;;;;3.83;3.53;;;2.50;1.00;;;;;;4989953;28;20440;-69
2021/12/05 01:18:52;;;;;;;3.87;3.53;;;2.50;1.00;;;;;;4993179;28;20449;-68
2021/12/05 01:21:21;;;;;;;4.67;3.97;;;2.40;1.00;;;;;;4993226;28;20839;-69
2021/12/05 01:26:45;;;;;;;4.18;3.83;;;2.40;1.00;;;;;;4992927;28;20432;-70
2021/12/05 01:43:15;;;;;;;6.35;5.75;;;2.00;1.00;;;;;;4992917;28;20407;-71
2021/12/05 01:45:51;;;;;;;3.50;2.72;;;1.90;1.00;;;;;;4991899;28;20208;-71
2021/12/05 01:50:51;;;;;;;3.00;2.80;;;1.90;1.00;;;;;;4992839;28;20978;-70
2021/12/05 02:01:50;;;;;;;4.28;3.88;;;1.60;1.00;;;;;;4992608;28;20648;-69
2021/12/05 02:31:47;;;;;;;3.53;2.90;;;1.40;1.00;;;;;;4992034;28;20210;-68
2021/12/05 02:41:52;;;;;;;2.63;2.42;;;1.60;1.00;;;;;;4991997;28;20408;-71
2021/12/05 02:46:50;;;;;;;3.53;2.30;;;1.60;1.00;;;;;;4991519;28;20218;-69
2021/12/05 02:49:17;;;;;;;2.70;2.50;;;1.60;1.00;;;;;;4991842;28;20165;-70
2021/12/05 02:51:52;;;;;;;3.27;2.97;;;1.70;1.00;;;;;;4991737;28;20845;-70
2021/12/05 02:54:20;;;;;;;3.43;3.23;;;1.70;1.00;;;;;;4991145;28;20404;-69
2021/12/05 02:56:50;;;;;;;3.03;2.83;;;1.70;1.00;;;;;;4991672;28;20428;-70
2021/12/05 03:02:17;;;;;;;3.63;3.33;;;1.70;1.00;;;;;;4990616;28;20181;-70
2021/12/05 03:04:46;;;;;;;3.42;3.22;;;1.70;1.00;;;;;;4991465;28;20180;-70
2021/12/05 03:07:14;;;;;;;3.47;3.17;;;1.60;1.00;;;;;;4991690;28;20250;-71
2021/12/05 03:09:41;;;;;;;3.67;2.90;;;1.70;1.00;;;;;;4991499;28;20192;-69
2021/12/05 03:12:10;;;;;;;4.20;3.20;;;1.70;1.00;;;;;;4990623;28;20291;-69
2021/12/05 03:14:37;;;;;;;2.55;2.45;;;1.70;1.00;;;;;;4990284;28;20169;-69
2021/12/05 03:17:03;;;;;;;2.93;2.73;;;1.70;1.00;;;;;;4991449;28;20318;-69
2021/12/05 03:19:29;;;;;;;3.87;2.37;;;1.70;1.00;;;;;;4991318;28;20396;-70
2021/12/05 03:21:54;;;;;;;3.13;2.93;;;1.80;1.00;;;;;;4990586;28;20777;-71
2021/12/05 03:24:22;;;;;;;5.23;3.80;;;1.80;1.00;;;;;;4990745;28;20702;-69
2021/12/05 03:26:50;;;;;;;3.33;2.78;;;1.80;1.00;;;;;;4991235;28;20767;-70
2021/12/05 03:29:19;;;;;;;2.30;2.20;;;1.80;1.00;;;;;;4991533;28;20601;-70
2021/12/05 03:31:46;;;;;;;2.87;2.67;;;1.80;1.00;;;;;;4991072;28;20448;-70
2021/12/05 03:34:15;;;;;;;5.37;2.83;;;1.80;1.00;;;;;;4990453;28;20776;-70
2021/12/05 03:36:44;;;;;;;3.10;2.80;;;1.80;1.00;;;;;;4991181;28;20412;-70
2021/12/05 03:39:10;;;;;;;3.00;2.80;;;1.80;1.00;;;;;;4990863;28;20484;-70
2021/12/05 03:41:37;;;;;;;3.47;2.77;;;1.80;1.00;;;;;;4990240;28;20408;-70
2021/12/05 03:44:04;;;;;;;2.53;2.42;;;1.70;1.00;;;;;;4989940;28;20419;-70
2021/12/05 03:46:30;;;;;;;3.72;3.42;;;1.70;1.00;;;;;;4991044;28;20189;-69
2021/12/05 03:49:01;;;;;;;2.65;2.35;;;1.80;1.00;;;;;;4991078;28;20671;-70
2021/12/05 03:51:29;;;;;;;6.13;2.53;;;1.80;1.00;;;;;;4990920;28;20257;-69
2021/12/05 03:53:55;;;;;;;2.57;2.37;;;1.80;1.00;;;;;;4988824;28;20424;-69
2021/12/05 03:56:22;;;;;;;3.20;3.00;;;1.80;1.00;;;;;;4990823;28;20432;-70
2021/12/05 03:58:49;;;;;;;4.07;3.50;;;1.90;1.00;;;;;;4990335;28;20220;-69
2021/12/05 04:01:15;;;;;;;3.40;3.10;;;1.90;1.00;;;;;;4990976;28;20416;-69
2021/12/05 04:03:42;;;;;;;3.83;3.53;;;1.90;1.00;;;;;;4988496;28;20450;-70
2021/12/05 04:06:12;;;;;;;2.70;2.60;;;1.90;1.00;;;;;;4990658;28;20197;-69
2021/12/05 04:08:42;;;;;;;3.70;3.40;;;1.90;1.00;;;;;;4990929;28;20436;-70
2021/12/05 04:11:14;;;;;;;3.63;3.33;;;2.00;1.00;;;;;;4990733;28;20423;-69
2021/12/05 04:13:41;;;;;;;3.80;2.90;;;1.80;1.00;;;;;;4988770;28;20516;-69
2021/12/05 04:16:08;;;;;;;3.07;2.77;;;1.90;1.00;;;;;;4990230;28;20792;-70
2021/12/05 04:18:34;;;;;;;2.53;2.33;;;1.90;1.00;;;;;;4990327;28;20427;-70
2021/12/05 04:21:05;;;;;;;3.67;3.47;;;1.90;1.00;;;;;;4990600;28;20211;-70
2021/12/05 04:23:31;;;;;;;3.50;3.20;;;1.90;1.00;;;;;;4989773;28;20818;-70
2021/12/05 04:25:57;;;;;;;3.27;2.97;;;1.90;1.00;;;;;;4989583;28;20428;-71
2021/12/05 04:28:24;;;;;;;3.50;2.57;;;1.90;1.00;;;;;;4990505;28;20449;-69
2021/12/05 04:30:50;;;;;;;3.80;3.53;;;1.90;1.00;;;;;;4990430;28;20761;-70
2021/12/05 04:33:16;;;;;;;4.30;4.00;;;1.90;1.00;;;;;;4989737;28;20447;-69
2021/12/05 04:35:42;;;;;;;3.80;3.47;;;1.90;1.00;;;;;;4989739;28;20585;-71
2021/12/05 04:38:09;;;;;;;3.87;3.50;;;1.90;1.00;;;;;;4990338;28;20211;-70
2021/12/05 04:40:35;;;;;;;3.88;3.58;;;1.80;1.00;;;;;;4990504;28;20423;-70
2021/12/05 04:43:03;;;;;;;4.77;3.80;;;1.90;1.00;;;;;;4989473;28;20173;-69
2021/12/05 04:45:31;;;;;;;4.63;3.83;;;1.80;1.00;;;;;;4990057;28;20443;-70
2021/12/05 04:47:57;;;;;;;4.35;3.75;;;1.70;1.00;;;;;;4990409;28;20396;-70
2021/12/05 04:50:24;;;;;;;4.60;3.23;;;1.80;1.00;;;;;;4990238;28;20230;-69
2021/12/05 04:52:51;;;;;;;3.60;3.40;;;1.70;1.00;;;;;;4992467;28;20458;-70
2021/12/05 04:55:18;;;;;;;3.50;3.30;;;1.80;1.00;;;;;;4993370;28;20185;-69
2021/12/05 04:57:44;;;;;;;4.90;4.40;;;1.80;1.00;;;;;;4992371;28;20177;-69
2021/12/05 05:00:21;;;;;;;3.00;2.80;;;1.70;1.00;;;;;;4993385;28;20172;-69
2021/12/05 05:02:48;;;;;;;4.47;3.75;;;1.80;1.00;;;;;;4992659;28;20172;-69
2021/12/05 05:05:14;;;;;;;3.03;2.83;;;1.80;1.00;;;;;;4993495;28;20193;-70
2021/12/05 05:07:42;;;;;;;4.33;3.17;;;1.80;1.00;;;;;;4992211;28;20234;-69
2021/12/05 05:10:15;;;;;;;4.67;3.90;;;1.80;1.00;;;;;;4991572;28;20781;-70
2021/12/05 05:12:41;;;;;;;5.15;4.55;;;1.80;1.00;;;;;;4992439;28;20439;-71
2021/12/05 05:15:08;;;;;;;3.43;3.17;;;1.80;1.00;;;;;;4993188;28;20218;-68
2021/12/05 05:17:35;;;;;;;3.73;3.43;;;1.90;1.00;;;;;;4993302;28;20496;-69
2021/12/05 05:20:08;;;;;;;4.40;4.10;;;1.90;1.00;;;;;;4993396;28;20428;-70
2021/12/05 05:28:20;;;;;;;4.00;3.70;;;1.80;1.00;;;;;;4993152;28;20746;-68
2021/12/05 05:49:22;;;;;;;3.90;3.47;;;1.90;1.00;;;;;;4993044;28;20264;-69
2021/12/05 05:51:48;;;;;;;3.72;3.30;;;1.90;1.00;;;;;;4992616;28;20440;-70
2021/12/05 05:54:14;;;;;;;3.23;3.07;;;1.90;1.00;;;;;;4991980;28;20180;-68
2021/12/05 05:56:42;;;;;;;5.10;3.90;;;2.00;1.00;;;;;;4992625;28;20920;-69
2021/12/05 05:59:38;;;;;;;3.30;3.00;;;1.90;1.00;;;;;;4992718;28;20411;-68
2021/12/05 06:04:35;;;;;;;4.23;3.90;;;2.00;1.00;;;;;;4991602;28;20400;-70
2021/12/05 06:07:00;;;;;;;3.87;3.60;;;2.10;1.00;;;;;;4992399;28;20985;-68
2021/12/05 06:09:26;;;;;;;3.93;3.73;;;2.00;1.00;;;;;;4992508;28;20169;-68
2021/12/05 06:11:52;;;;;;;4.73;4.20;;;2.00;1.00;;;;;;4992230;28;20188;-70
2021/12/05 06:14:18;;;;;;;4.10;3.70;;;1.90;1.00;;;;;;4991914;28;20199;-68
2021/12/05 06:16:43;;;;;;;8.70;4.90;;;2.00;1.00;;;;;;4992291;28;20188;-70
2021/12/05 06:19:09;;;;;;;5.70;5.13;;;2.00;1.00;;;;;;4992281;28;20400;-70
2021/12/05 06:21:35;;;;;;;4.20;3.73;;;2.00;1.00;;;;;;4991926;28;20177;-69
2021/12/05 06:24:01;;;;;;;5.87;5.37;;;2.00;1.00;;;;;;4991327;28;20881;-70
2021/12/05 06:26:26;;;;;;;6.27;4.77;;;2.00;1.00;;;;;;4992202;28;20185;-69
2021/12/05 06:29:19;;;;;;;5.47;4.13;;;2.00;1.00;;;;;;4992198;28;20392;-69
2021/12/05 06:42:45;;;;;;;6.73;4.73;;;2.00;1.00;;;;;;4990957;28;20211;-72
2021/12/05 06:47:54;;;;;;;5.40;4.90;;;2.10;1.00;;;;;;4991151;28;20417;-69
2021/12/05 06:50:20;;;;;;;5.10;4.60;;;2.10;1.00;;;;;;4990667;28;20428;-70
2021/12/05 06:52:46;;;;;;;6.93;4.53;;;2.00;1.00;;;;;;4990839;28;20491;-71
2021/12/05 06:55:13;;;;;;;8.97;5.57;;;2.00;1.00;;;;;;4991731;28;20283;-69
2021/12/05 06:57:40;;;;;;;6.40;5.37;;;2.10;1.00;;;;;;4991269;28;20410;-72
2021/12/05 07:00:14;;;;;;;7.95;5.60;;;2.10;1.00;;;;;;4991568;28;20404;-70
2021/12/05 07:02:40;;;;;;;4.60;4.20;;;2.10;1.00;;;;;;4990970;28;20180;-70
2021/12/05 07:07:42;;;;;;;6.30;5.77;;;2.10;1.00;;;;;;4991879;28;20172;-69
2021/12/05 07:10:10;;;;;;;6.77;5.13;;;2.00;1.00;;;;;;4991648;28;20412;-69
2021/12/05 07:43:58;;;;;;;8.20;4.67;;;2.00;1.00;;;;;;4990288;28;20412;-70
2021/12/05 07:46:24;;;;;;;9.27;6.10;;;2.10;1.00;;;;;;4991058;28;20185;-70
2021/12/05 07:48:50;;;;;;;6.03;5.30;;;2.00;1.00;;;;;;4991023;28;20571;-70
2021/12/05 07:56:47;;;;;;;9.37;7.37;;;2.20;1.00;;;;;;4991246;28;20438;-70
2021/12/05 07:59:43;;;;;;;8.63;6.03;;;2.20;1.00;;;;;;4990940;28;20416;-69
2021/12/05 08:16:09;;;;;;;9.47;6.70;;;2.20;1.00;;;;;;4990797;28;20827;-70
2021/12/05 08:18:35;;;;;;;8.70;6.80;;;2.20;1.00;;;;;;4990823;28;20403;-70
2021/12/05 08:21:03;;;;;;;8.87;7.47;;;2.30;1.00;;;;;;4990618;28;20404;-69
2021/12/05 08:23:29;;;;;;;14.40;6.20;;;2.30;1.00;;;;;;4988770;28;20408;-69
2021/12/05 08:26:13;;;;;;;8.43;7.10;;;2.30;1.00;;;;;;4991123;28;21308;-70
2021/12/05 08:31:17;;;;;;;9.03;6.30;;;2.40;1.00;;;;;;4993767;28;20400;-70
2021/12/05 08:34:02;;;;;;;7.80;5.90;;;2.40;1.00;;;;;;4993068;28;20435;-70
2021/12/05 08:36:54;;;;;;;7.60;6.40;;;2.40;1.00;;;;;;4993943;28;20519;-70
2021/12/05 08:44:52;;;;;;;10.43;7.27;;;2.40;1.00;;;;;;4993873;28;20955;-71
2021/12/05 09:20:42;;;;;;;7.97;6.80;;;2.50;1.00;;;;;;4993418;28;20227;-69
2021/12/05 09:23:39;;;;;;;10.50;7.70;;;2.50;1.00;;;;;;4992204;28;20498;-69
2021/12/05 10:34:36;;;;;;;7.10;6.13;;;2.50;1.00;;;;;;4991570;28;20496;-70
2021/12/05 10:37:11;;;;;;;15.57;8.10;;;2.60;1.00;;;;;;4992011;28;20928;-69
2021/12/05 10:39:37;;;;;;;7.97;6.27;;;2.70;1.00;;;;;;4991507;28;20408;-71
2021/12/05 10:45:23;;;;;;;7.50;6.73;;;2.70;1.00;;;;;;4990456;28;20538;-69
2021/12/05 10:47:51;;;;;;;9.80;7.50;;;2.70;1.00;;;;;;4991938;28;20416;-69
2021/12/05 10:50:38;;;;;;;11.00;8.20;;;2.70;1.00;;;;;;4991795;28;20408;-69
2021/12/05 10:53:25;;;;;;;11.70;6.93;;;2.70;1.00;;;;;;4990829;28;20518;-71
2021/12/05 10:56:19;;;;;;;8.60;7.20;;;2.70;1.00;;;;;;4990446;28;20447;-69
2021/12/05 10:58:49;;;;;;;7.07;6.27;;;2.80;1.00;;;;;;4998265;28;20597;-69
2021/12/05 11:01:23;;;;;;;13.63;7.30;;;2.80;1.00;;;;;;4991709;28;20979;-69
2021/12/05 11:03:59;;;;;;;6.00;5.43;;;2.80;1.00;;;;;;4990726;28;20408;-68
2021/12/05 11:06:35;;;;;;;9.33;7.33;;;2.80;1.00;;;;;;4991674;28;20455;-70
2021/12/05 11:09:10;;;;;;;9.57;6.63;;;2.90;1.00;;;;;;4991608;28;20405;-70
2021/12/05 11:11:37;;;;;;;8.77;6.80;;;2.80;1.00;;;;;;4991682;28;20443;-68
2021/12/05 11:14:09;;;;;;;6.17;5.53;;;2.80;1.00;;;;;;4990690;28;20423;-69
2021/12/05 11:16:51;;;;;;;9.03;7.60;;;2.90;1.00;;;;;;4989968;28;20464;-70
2021/12/05 11:19:30;;;;;;;8.20;6.43;;;3.00;1.00;;;;;;4991339;28;20408;-70
2021/12/05 11:22:00;;;;;;;12.10;7.70;;;2.90;1.00;;;;;;4990014;28;20412;-69
2021/12/05 11:24:31;;;;;;;6.43;5.60;;;2.90;1.00;;;;;;4990183;28;20498;-71
2021/12/05 11:27:05;;;;;;;8.87;6.27;;;2.90;1.00;;;;;;4991425;28;20428;-68
2021/12/05 11:29:45;;;;;;;7.40;6.63;;;2.90;1.00;;;;;;4991352;28;20466;-70
2021/12/05 11:32:19;;;;;;;10.20;6.43;;;2.90;1.00;;;;;;4989432;28;20459;-68
2021/12/05 11:34:46;;;;;;;9.20;7.20;;;2.80;1.00;;;;;;4990636;28;20410;-70
2021/12/05 11:37:12;;;;;;;12.47;6.73;;;2.90;1.00;;;;;;4991057;28;20435;-70
2021/12/05 11:39:38;;;;;;;13.13;7.80;;;2.90;1.00;;;;;;4991261;28;20401;-69
2021/12/05 11:42:17;;;;;;;6.17;5.57;;;2.80;1.00;;;;;;4989333;28;20412;-69
2021/12/05 11:44:46;;;;;;;8.10;6.33;;;2.80;1.00;;;;;;4991038;28;20193;-70
2021/12/05 11:47:14;;;;;;;12.23;9.10;;;2.80;1.00;;;;;;4990998;28;20432;-69
2021/12/05 11:49:40;;;;;;;8.20;6.87;;;2.80;1.00;;;;;;4990070;28;20458;-70
2021/12/05 11:52:08;;;;;;;11.43;7.23;;;2.70;1.00;;;;;;4990115;28;20804;-69
2021/12/05 11:54:45;;;;;;;8.60;7.37;;;2.60;1.00;;;;;;4990265;28;20400;-71
2021/12/05 11:57:18;;;;;;;11.23;7.40;;;2.50;1.00;;;;;;4990901;28;20522;-68
2021/12/05 11:59:50;;;;;;;6.33;5.73;;;2.50;1.00;;;;;;4989650;28;20904;-71
2021/12/05 12:02:18;;;;;;;8.13;6.80;;;2.40;1.00;;;;;;4989440;28;20416;-70
2021/12/05 12:04:47;;;;;;;9.23;6.87;;;2.50;1.00;;;;;;4990834;28;20465;-68
2021/12/05 12:07:23;;;;;;;13.63;6.85;;;2.50;1.00;;;;;;4990688;28;20436;-70
2021/12/05 12:09:55;;;;;;;7.80;6.03;;;2.40;1.00;;;;;;4990795;28;20309;-68
2021/12/05 12:12:20;;;;;;;7.60;5.70;;;2.40;1.00;;;;;;4989959;28;20448;-68
2021/12/05 12:14:47;;;;;;;6.47;5.30;;;2.50;1.00;;;;;;4990246;28;20404;-69
2021/12/05 12:17:17;;;;;;;7.27;6.60;;;2.50;1.00;;;;;;4989695;28;20254;-70
2021/12/05 12:19:49;;;;;;;5.60;4.87;;;2.50;1.00;;;;;;4990569;28;20423;-70
2021/12/05 12:22:20;;;;;;;6.60;5.90;;;2.50;2.90;;;;;;4989916;28;20401;-69
2021/12/05 12:24:59;;;;;;;6.70;6.10;;;2.50;5.90;;;;;;4990661;28;20419;-69
2021/12/05 12:27:25;;;;;;;6.33;5.73;;;2.50;7.50;;;;;;4989378;28;20477;-70
2021/12/05 12:29:52;;;;;;;11.90;7.00;;;2.50;9.60;;;;;;4990543;28;20420;-70
2021/12/05 12:32:24;;;;;;;7.27;5.20;;;2.60;12.50;;;;;;4989614;28;20307;-69
2021/12/05 12:34:59;;;;;;;7.93;6.10;;;2.60;17.20;;;;;;4989993;28;20924;-69
2021/12/05 12:37:25;;;;;;;5.70;5.30;;;2.70;18.90;;;;;;4990398;28;20452;-69
2021/12/05 12:39:51;;;;;;;6.20;5.17;;;2.60;17.50;;;;;;4990361;28;20400;-70
2021/12/05 12:42:25;;;;;;;6.80;5.03;;;2.50;16.50;;;;;;4989623;28;20770;-69
2021/12/05 12:45:13;;;;;;;4.67;4.27;;;2.50;19.20;;;;;;4990579;28;20420;-70
2021/12/05 12:47:52;;;;;;;6.23;5.23;;;2.50;20.40;;;;;;4990458;28;20487;-69
2021/12/05 12:50:51;;;;;;;4.77;4.47;;;2.50;22.30;;;;;;4989223;28;20469;-69
2021/12/05 12:53:29;;;;;;;4.97;4.43;;;2.60;26.50;;;;;;5009940;28;20821;-69
2021/12/05 12:56:00;;;;;;;5.30;4.63;;;2.60;26.50;;;;;;4990084;28;20492;-69
2021/12/05 12:58:43;;;;;;;5.37;4.50;;;2.60;28.00;;;;;;4990218;28;20511;-71
2021/12/05 13:04:31;;;;;;;5.83;5.20;;;2.70;31.00;;;;;;4989424;28;20911;-69
2021/12/05 13:12:44;;;;;;;6.67;5.33;;;2.60;30.70;;;;;;4990327;28;20538;-70
2021/12/05 13:15:16;;;;;;;7.13;4.40;;;2.40;27.90;;;;;;4993350;28;20400;-69
2021/12/05 13:17:48;;;;;;;5.97;4.07;;;2.30;29.00;;;;;;4993453;28;20495;-70
2021/12/05 13:20:25;;;;;;;5.90;4.87;;;2.30;29.00;;;;;;4993301;28;20395;-69
2021/12/05 13:23:09;;;;;;;3.70;3.40;;;2.20;29.20;;;;;;4992517;28;20490;-69
2021/12/05 13:26:03;;;;;;;5.30;4.80;;;2.10;29.30;;;;;;4992792;28;20473;-71
2021/12/05 13:28:57;;;;;;;4.07;3.78;;;2.00;29.80;;;;;;4991864;28;20511;-69
2021/12/05 13:31:29;;;;;;;6.88;4.78;;;2.00;32.00;;;;;;4992986;28;20185;-68
2021/12/05 13:34:16;;;;;;;4.73;4.33;;;2.00;36.70;;;;;;4992172;28;20165;-71
2021/12/05 13:36:50;;;;;;;5.95;5.05;;;2.00;39.10;;;;;;4991915;28;20488;-69
2021/12/05 13:39:41;;;;;;;4.75;4.07;;;2.00;39.10;;;;;;4993043;28;20166;-69
2021/12/05 13:42:17;;;;;;;5.68;3.83;;;2.00;39.10;;;;;;4992026;28;20176;-70
2021/12/05 13:45:02;;;;;;;3.47;3.22;;;2.10;44.00;;;;;;4992670;28;20184;-69
2021/12/05 13:47:47;;;;;;;4.00;3.70;;;2.10;46.20;;;;;;4992776;28;20165;-69
2021/12/05 13:50:19;;;;;;;5.07;3.87;;;2.20;48.00;;;;;;4992857;28;20501;-70
2021/12/05 13:53:02;;;;;;;6.13;5.10;;;2.30;51.10;;;;;;4991866;28;20560;-70
2021/12/05 13:56:02;;;;;;;5.07;4.67;;;2.30;53.10;;;;;;4992669;28;20420;-70
2021/12/05 13:58:49;;;;;;;5.97;5.10;;;2.40;53.80;;;;;;4991450;28;20896;-70
2021/12/05 14:01:18;;;;;;;6.63;5.10;;;2.50;55.00;;;;;;4992761;28;20403;-70
2021/12/05 14:04:23;;;;;;;4.80;4.43;;;2.50;56.20;;;;;;4991728;28;20428;-70
2021/12/05 14:07:04;;;;;;;4.43;4.00;;;2.50;55.50;;;;;;4992174;28;20774;-69
2021/12/05 14:09:42;;;;;;;6.77;3.53;;;2.50;55.30;;;;;;4992641;28;20408;-70
2021/12/05 14:12:24;;;;;;;4.90;4.30;;;2.50;54.90;;;;;;4991549;28;20444;-69
2021/12/05 14:14:53;;;;;;;5.00;3.30;;;2.50;56.30;;;;;;4992534;28;20803;-68
2021/12/05 14:17:23;;;;;;;7.47;5.40;;;2.50;56.20;;;;;;4992481;28;20427;-69
2021/12/05 14:20:01;;;;;;;5.93;3.90;;;2.50;55.80;;;;;;4992422;28;20415;-70
2021/12/05 14:22:29;;;;;;;4.73;3.50;;;2.50;56.70;;;;;;4990746;28;20500;-71
2021/12/05 14:24:57;;;;;;;9.87;5.37;;;2.60;56.90;;;;;;4991778;28;20396;-70
2021/12/05 14:27:33;;;;;;;6.07;5.37;;;2.60;57.20;;;;;;4992292;28;20412;-70
2021/12/05 14:30:00;;;;;;;4.17;3.63;;;2.60;56.60;;;;;;4991262;28;20412;-69
2021/12/05 14:32:33;;;;;;;8.10;5.63;;;2.50;56.10;;;;;;4991180;28;20450;-72
2021/12/05 14:35:06;;;;;;;13.43;6.97;;;2.50;56.80;;;;;;4992066;28;20396;-68
2021/12/05 14:37:35;;;;;;;6.33;5.60;;;2.60;57.60;;;;;;4991161;28;20773;-69
2021/12/05 14:40:15;;;;;;;7.00;4.77;;;2.60;58.60;;;;;;4992182;28;20457;-70
2021/12/05 14:42:44;;;;;;;12.73;5.87;;;2.70;60.10;;;;;;4990715;28;20465;-69
2021/12/05 14:45:14;;;;;;;5.30;4.77;;;2.90;61.50;;;;;;4991854;28;20485;-70
2021/12/05 14:47:44;;;;;;;6.33;5.17;;;3.00;62.50;;;;;;4992009;28;20462;-68
2021/12/05 14:50:16;;;;;;;8.63;4.63;;;3.10;62.60;;;;;;4992042;28;20408;-69
2021/12/05 14:52:45;;;;;;;5.23;4.70;;;3.10;62.50;;;;;;4990802;28;20483;-68
2021/12/05 14:55:13;;;;;;;6.20;5.67;;;3.20;61.30;;;;;;4990516;28;20412;-68
2021/12/05 14:57:45;;;;;;;6.33;4.97;;;3.10;59.30;;;;;;4990850;28;20498;-68
2021/12/05 15:00:17;;;;;;;9.57;6.77;;;3.10;57.40;;;;;;4991312;28;20457;-69
2021/12/05 15:02:43;;;;;;;5.83;5.33;;;3.00;55.50;;;;;;4990778;28;20465;-70
2021/12/05 15:05:12;;;;;;;12.10;5.93;;;3.00;53.80;;;;;;4990402;28;20416;-70
2021/12/05 15:07:38;;;;;;;5.50;4.53;;;3.00;53.80;;;;;;4991844;28;20412;-68
2021/12/05 15:10:05;;;;;;;5.67;5.17;;;3.10;53.90;;;;;;4991630;28;20467;-69
2021/12/05 15:12:34;;;;;;;7.80;5.47;;;3.10;53.90;;;;;;4990607;28;20471;-68
2021/12/05 15:15:03;;;;;;;6.90;5.43;;;3.20;54.00;;;;;;4991509;28;20482;-68
2021/12/05 15:17:33;;;;;;;6.37;5.33;;;3.20;50.50;;;;;;4991399;28;20483;-69
2021/12/05 15:20:09;;;;;;;5.90;4.97;;;3.20;48.10;;;;;;4991146;28;20961;-70
2021/12/05 15:22:35;;;;;;;7.60;5.83;;;3.30;46.80;;;;;;4990572;28;20403;-69
2021/12/05 15:25:05;;;;;;;6.93;5.80;;;3.30;43.00;;;;;;4991236;28;20871;-70
2021/12/05 15:27:33;;;;;;;7.00;6.20;;;3.40;40.50;;;;;;4990179;28;20467;-70
2021/12/05 15:30:07;;;;;;;7.27;4.80;;;3.40;36.20;;;;;;4991424;28;20404;-70
2021/12/05 15:32:34;;;;;;;10.93;6.00;;;3.40;30.90;;;;;;4989267;28;20468;-69
2021/12/05 15:35:11;;;;;;;9.43;5.90;;;3.40;24.00;;;;;;4989234;28;20562;-70
2021/12/05 15:37:37;;;;;;;7.83;5.53;;;3.40;15.60;;;;;;4990906;28;20411;-70
2021/12/05 15:40:05;;;;;;;7.00;6.30;;;3.40;11.80;;;;;;4989983;28;20803;-69
2021/12/05 15:42:33;;;;;;;5.40;4.90;;;3.40;6.50;;;;;;4989820;28;20177;-69
2021/12/05 15:45:03;;;;;;;5.87;5.27;;;3.40;3.50;;;;;;4989690;28;20439;-69
2021/12/05 15:47:32;;;;;;;7.60;5.20;;;3.40;1.00;;;;;;4990775;28;20409;-69
2021/12/05 15:50:00;;;;;;;6.10;5.40;;;3.40;1.00;;;;;;4990685;28;20450;-69
2021/12/05 15:52:37;;;;;;;5.63;4.10;;;3.30;1.00;;;;;;4989930;28;20444;-71
2021/12/05 15:55:08;;;;;;;8.27;5.07;;;3.30;1.00;;;;;;4989864;28;20466;-70
2021/12/05 15:57:37;;;;;;;9.03;6.90;;;3.40;1.00;;;;;;4990693;28;20400;-70
2021/12/05 16:00:10;;;;;;;8.53;6.73;;;3.40;1.00;;;;;;4990730;28;20392;-69
2021/12/05 16:02:36;;;;;;;6.10;5.50;;;3.40;1.00;;;;;;4989503;28;20404;-69
2021/12/05 16:05:12;;;;;;;11.70;6.07;;;3.30;1.00;;;;;;4989268;28;20470;-70
2021/12/05 16:07:38;;;;;;;5.90;5.30;;;3.20;1.00;;;;;;4989665;28;20469;-69
2021/12/05 16:10:17;;;;;;;7.80;5.80;;;3.10;1.00;;;;;;4990340;28;20850;-69
2021/12/05 16:12:46;;;;;;;6.73;6.13;;;3.30;1.00;;;;;;4989163;28;20189;-70
2021/12/05 16:15:12;;;;;;;9.70;8.17;;;3.40;1.00;;;;;;4989927;28;20439;-70
2021/12/05 16:17:41;;;;;;;8.73;5.97;;;3.50;1.00;;;;;;4990283;28;20457;-69
2021/12/05 16:20:15;;;;;;;14.90;7.27;;;3.60;1.00;;;;;;4990387;28;20882;-69
2021/12/05 16:23:07;;;;;;;8.27;6.40;;;3.60;1.00;;;;;;4989464;28;20482;-69
2021/12/05 16:25:36;;;;;;;9.13;6.13;;;3.70;1.00;;;;;;4989988;28;20420;-69
2021/12/05 16:28:05;;;;;;;8.33;5.77;;;3.60;1.00;;;;;;4988789;28;20448;-69
2021/12/05 16:30:39;;;;;;;6.77;5.10;;;3.60;1.00;;;;;;4990368;28;20408;-69
2021/12/05 16:33:06;;;;;;;12.20;5.30;;;3.70;1.00;;;;;;4989053;28;20487;-71
2021/12/05 16:35:41;;;;;;;4.70;4.30;;;3.70;3.80;;;;;;4989163;28;20492;-69
2021/12/05 16:38:20;;;;;;;5.63;3.87;;;3.70;8.40;;;;;;4990370;28;20904;-69
2021/12/05 16:41:09;;;;;;;4.80;4.30;;;3.70;15.90;;;;;;4990443;28;20404;-69
2021/12/05 16:43:38;;;;;;;7.97;4.97;;;3.70;25.40;;;;;;4997041;28;20773;-69
2021/12/05 16:46:31;;;;;;;5.50;4.20;;;3.80;33.90;;;;;;4990203;28;20936;-69
2021/12/05 16:49:00;;;;;;;5.07;4.40;;;3.80;40.90;;;;;;4993885;28;20404;-69
2021/12/05 16:51:36;;;;;;;6.40;5.53;;;3.90;46.60;;;;;;4993009;28;20415;-69
2021/12/05 16:54:43;;;;;;;6.90;5.70;;;4.00;52.70;;;;;;4992801;28;20416;-70
2021/12/05 16:57:12;;;;;;;4.90;4.27;;;4.10;54.90;;;;;;4992281;28;20435;-69
2021/12/05 16:59:45;;;;;;;6.23;5.63;;;4.10;54.60;;;;;;4993626;28;20415;-69
2021/12/05 17:02:25;;;;;;;5.97;5.17;;;4.00;54.80;;;;;;4992860;28;20407;-69
2021/12/05 17:05:07;;;;;;;7.23;4.60;;;4.00;53.80;;;;;;4980447;28;20422;-68
2021/12/05 17:07:41;;;;;;;13.53;7.60;;;3.90;54.70;;;;;;4979801;28;20420;-69
2021/12/05 17:10:11;;;;;;;10.77;6.57;;;3.90;54.70;;;;;;4986235;28;20556;-69
2021/12/05 17:12:37;;;;;;;9.27;6.50;;;3.90;54.70;;;;;;4990628;28;20455;-70
2021/12/05 17:15:16;;;;;;;11.73;6.37;;;4.00;54.80;;;;;;4981774;28;20571;-69
2021/12/05 17:17:45;;;;;;;10.17;8.17;;;3.90;55.00;;;;;;4973950;28;20381;-70
2021/12/05 17:20:22;;;;;;;17.27;12.47;;;3.90;56.10;;;;;;4985619;28;20762;-68
2021/12/05 17:23:14;;;;;;;13.00;7.90;;;3.90;57.30;;;;;;4992375;28;20404;-70
2021/12/05 17:25:45;;;;;;;15.53;10.43;;;3.90;58.50;;;;;;4977424;28;20890;-69
2021/12/05 17:28:16;;;;;;;12.00;8.67;;;3.90;59.80;;;;;;4973749;28;20413;-69
2021/12/05 17:30:55;;;;;;;10.50;7.30;;;4.00;60.60;;;;;;4988068;28;20440;-70
2021/12/05 17:33:37;;;;;;;15.30;9.90;;;3.90;60.10;;;;;;4992283;28;20949;-69
2021/12/05 17:36:20;;;;;;;12.60;6.97;;;3.90;60.90;;;;;;4975942;28;20535;-70
2021/12/05 17:38:47;;;;;;;10.23;6.30;;;4.00;61.80;;;;;;4973633;28;20393;-69
2021/12/05 17:41:14;;;;;;;8.47;6.20;;;4.10;62.50;;;;;;4990616;28;20420;-71
2021/12/05 17:43:40;;;;;;;10.77;6.97;;;4.10;62.60;;;;;;4991896;28;20815;-70
2021/12/05 17:46:06;;;;;;;12.40;6.97;;;4.20;62.50;;;;;;4976659;28;20453;-70
2021/12/05 17:48:33;;;;;;;10.30;7.00;;;4.10;60.00;;;;;;4973515;28;20170;-71
2021/12/05 17:51:04;;;;;;;18.40;8.27;;;3.90;56.40;;;;;;4987488;28;20469;-70
2021/12/05 17:53:32;;;;;;;15.37;8.30;;;3.80;54.60;;;;;;4986900;28;20453;-70
2021/12/05 17:56:12;;;;;;;14.93;8.60;;;3.60;48.10;;;;;;4973251;28;20451;-69
2021/12/05 18:03:56;;;;;;;11.90;8.57;;;3.20;43.00;;;;;;4990013;28;20890;-70
2021/12/05 18:06:23;;;;;;;8.93;6.57;;;3.20;41.40;;;;;;4992466;28;20420;-69
2021/12/05 18:08:49;;;;;;;12.90;7.20;;;3.10;41.00;;;;;;4975613;28;20451;-69
2021/12/05 18:11:23;;;;;;;8.77;6.60;;;3.00;41.20;;;;;;4972988;28;20452;-70
2021/12/05 18:13:55;;;;;;;10.90;7.23;;;3.10;43.50;;;;;;4987567;28;20461;-69
2021/12/05 18:16:25;;;;;;;15.10;10.50;;;3.00;42.50;;;;;;4976924;28;20463;-69
2021/12/05 18:18:56;;;;;;;11.67;7.40;;;3.00;42.60;;;;;;4977879;28;20431;-71
2021/12/05 18:21:25;;;;;;;13.63;7.30;;;2.90;43.60;;;;;;4990787;28;20396;-69
2021/12/05 18:23:52;;;;;;;13.20;6.57;;;2.90;44.90;;;;;;4986402;28;20424;-70
2021/12/05 18:26:18;;;;;;;10.27;6.77;;;3.00;47.00;;;;;;4972546;28;20898;-69
2021/12/05 18:28:49;;;;;;;10.30;7.20;;;3.00;47.10;;;;;;4975573;28;20462;-69
2021/12/05 18:31:19;;;;;;;11.70;7.70;;;3.00;50.30;;;;;;4992231;28;20400;-69
2021/12/05 18:33:47;;;;;;;11.60;8.13;;;3.10;51.50;;;;;;4974276;28;20457;-69
2021/12/05 18:36:13;;;;;;;9.60;6.27;;;3.10;53.90;;;;;;4991775;28;20416;-69
2021/12/05 18:38:39;;;;;;;8.90;7.67;;;3.20;54.00;;;;;;4990473;28;20457;-70
2021/12/05 18:41:09;;;;;;;10.07;6.00;;;3.20;54.00;;;;;;4972049;28;20253;-69
2021/12/05 18:43:38;;;;;;;7.27;6.57;;;3.20;54.00;;;;;;4971549;28;20428;-69
2021/12/05 18:46:05;;;;;;;9.33;8.40;;;3.20;54.00;;;;;;4972208;28;20453;-69
2021/12/05 18:48:31;;;;;;;6.70;5.77;;;3.20;54.00;;;;;;4972434;28;20409;-70
2021/12/05 18:50:57;;;;;;;4.63;4.23;;;3.20;54.10;;;;;;4990560;28;20439;-69
2021/12/05 18:53:23;;;;;;;4.93;4.53;;;3.30;57.00;;;;;;4976377;28;20605;-69
2021/12/05 18:55:52;;;;;;;3.77;3.57;;;3.40;60.50;;;;;;4988559;28;20505;-71
2021/12/05 18:58:22;;;;;;;6.97;5.43;;;3.50;63.10;;;;;;4982218;28;20173;-70
2021/12/05 19:06:29;;;;;;;3.00;2.60;;;3.70;67.00;;;;;;4972080;28;20420;-69
2021/12/05 19:11:49;;;;;;;2.57;2.40;;;3.70;68.10;;;;;;4972077;28;20428;-69
2021/12/05 19:14:36;;;;;;;5.10;2.83;;;3.60;68.90;;;;;;4973048;28;20492;-70
2021/12/05 19:17:15;;;;;;;2.93;2.50;;;3.60;70.20;;;;;;4990810;28;20421;-68
2021/12/05 19:19:43;;;;;;;2.40;2.30;;;3.50;69.50;;;;;;4986207;28;20401;-70
2021/12/05 19:22:12;;;;;;;3.70;2.47;;;3.40;69.00;;;;;;4970965;28;20405;-69
2021/12/05 19:24:38;;;;;;;3.53;2.20;;;3.30;68.40;;;;;;4975430;28;20411;-71
2021/12/05 19:27:04;;;;;;;2.43;2.23;;;3.20;67.90;;;;;;4991032;28;20436;-68
2021/12/05 19:29:32;;;;;;;2.37;2.27;;;3.10;67.00;;;;;;4988448;28;20477;-68